Monticello Municipal Ellis Field
KLLQ : now visible

Airfield :











YOU CAN JOIN US ON...

 
LOGIN :

Register | Disclaimer

   EN    FR    IT 

 









Legend :    VFR   Marginal VFR   IFR   Intensive IFR   Very Intensive IFR
Visi :
Ceiling :
>= 8 km
>= 3000ft
5 to 8 km
1000 to 3000 ft
1500m to 5 km
500 to 1000 ft
800 to 1500m
200 to 500 ft
< 800m
< 200 ft
Symbols :   Thunderstorms  Fog  Heavy snow  Heavy precipitations  Wind > 20 kt






- Airport Elevation : 270 ft


KLLQ - Monticello Municipal Ellis Field

CURRENT METAR :
  • 130453Z AUTO 00000KT 10SM CLR 24/23 A2998 RMK AO2 SLP149 T02390228

EXPIRED METARs :
  • 130353Z AUTO 00000KT 10SM FEW049 25/23 A2999 RMK AO2 SLP151 T02500228
  • 130253Z AUTO 00000KT 10SM CLR 24/23 A2998 RMK AO2 SLP148 T02440228 53008

TAF KLLQ
Valid from the 13 at 06:00 until the 14 at 06:00 UTC


130529Z 1306/1406 VRB02KT 6SM BR BKN050
FM130900 00000KT 5SM BR OVC010
FM131500 VRB04KT 6SM BR BKN020
FM131600 VRB05KT P6SM VCTS BKN040CB
FM140000 VRB02KT P6SM SCT120 BKN250
KZME FIR / North America



MET'MAP, your aeronautical weather chart ! - Copyright ORBIFLY December 2007 - Disclaimer

ORBIFLY MET'MAP TEAM :

Programming & Development : Alexandra Zaïnal
Concept & original design : Baudouin d'Aumeries
Assistance for programming : Marc-Olivier Méhu
Technical & hardware support : Manuel Goepfert

Contact : metmap@orbifly.com




SOURCES & CREDITS :

   NOAA       Earth
Advisory